sensor_id;sensor_type;location;lat;lon;timestamp;P1;durP1;ratioP1;P2;durP2;ratioP2
53751;SDS011;41095;53.090;6.692;2023-05-16T00:01:10;12.98;;;4.43;;
53751;SDS011;41095;53.090;6.692;2023-05-16T00:03:37;14.02;;;4.50;;
53751;SDS011;41095;53.090;6.692;2023-05-16T00:06:03;13.13;;;4.35;;
53751;SDS011;41095;53.090;6.692;2023-05-16T00:08:30;18.83;;;5.35;;
53751;SDS011;41095;53.090;6.692;2023-05-16T00:10:55;15.77;;;4.57;;
53751;SDS011;41095;53.090;6.692;2023-05-16T00:13:21;13.02;;;4.50;;
53751;SDS011;41095;53.090;6.692;2023-05-16T00:15:53;12.60;;;4.60;;
53751;SDS011;41095;53.090;6.692;2023-05-16T00:18:23;10.82;;;4.40;;
53751;SDS011;41095;53.090;6.692;2023-05-16T00:20:50;11.57;;;4.53;;
53751;SDS011;41095;53.090;6.692;2023-05-16T00:23:16;12.23;;;3.70;;
53751;SDS011;41095;53.090;6.692;2023-05-16T00:25:42;9.25;;;4.00;;
53751;SDS011;41095;53.090;6.692;2023-05-16T00:28:07;10.70;;;4.20;;
53751;SDS011;41095;53.090;6.692;2023-05-16T00:30:33;11.48;;;4.30;;
53751;SDS011;41095;53.090;6.692;2023-05-16T00:32:59;11.80;;;4.75;;
53751;SDS011;41095;53.090;6.692;2023-05-16T00:35:26;9.75;;;3.35;;
53751;SDS011;41095;53.090;6.692;2023-05-16T00:37:51;8.45;;;3.60;;
53751;SDS011;41095;53.090;6.692;2023-05-16T00:40:18;11.02;;;4.45;;
53751;SDS011;41095;53.090;6.692;2023-05-16T00:42:44;15.43;;;3.80;;
53751;SDS011;41095;53.090;6.692;2023-05-16T00:45:09;12.63;;;4.13;;
53751;SDS011;41095;53.090;6.692;2023-05-16T00:47:36;7.90;;;3.72;;
53751;SDS011;41095;53.090;6.692;2023-05-16T00:50:02;11.32;;;4.10;;
53751;SDS011;41095;53.090;6.692;2023-05-16T00:52:28;11.57;;;3.90;;
53751;SDS011;41095;53.090;6.692;2023-05-16T00:54:55;9.38;;;3.90;;
53751;SDS011;41095;53.090;6.692;2023-05-16T00:57:21;7.32;;;2.92;;
53751;SDS011;41095;53.090;6.692;2023-05-16T00:59:47;10.85;;;4.10;;
53751;SDS011;41095;53.090;6.692;2023-05-16T01:02:14;7.07;;;3.58;;
53751;SDS011;41095;53.090;6.692;2023-05-16T01:04:40;8.90;;;3.25;;
53751;SDS011;41095;53.090;6.692;2023-05-16T01:07:07;8.55;;;3.35;;
53751;SDS011;41095;53.090;6.692;2023-05-16T01:09:32;7.47;;;4.13;;
53751;SDS011;41095;53.090;6.692;2023-05-16T01:12:10;9.55;;;3.83;;
53751;SDS011;41095;53.090;6.692;2023-05-16T01:15:16;8.02;;;3.47;;
53751;SDS011;41095;53.090;6.692;2023-05-16T01:17:41;8.32;;;3.58;;
53751;SDS011;41095;53.090;6.692;2023-05-16T01:20:36;10.45;;;3.97;;
53751;SDS011;41095;53.090;6.692;2023-05-16T01:26:04;9.35;;;4.10;;
53751;SDS011;41095;53.090;6.692;2023-05-16T01:28:32;9.98;;;3.38;;
53751;SDS011;41095;53.090;6.692;2023-05-16T01:30:59;11.57;;;4.20;;
53751;SDS011;41095;53.090;6.692;2023-05-16T01:33:25;8.27;;;3.40;;
53751;SDS011;41095;53.090;6.692;2023-05-16T01:35:56;7.45;;;3.42;;
53751;SDS011;41095;53.090;6.692;2023-05-16T01:41:25;12.57;;;4.03;;
53751;SDS011;41095;53.090;6.692;2023-05-16T01:44:00;7.78;;;4.07;;
53751;SDS011;41095;53.090;6.692;2023-05-16T01:46:30;8.93;;;3.45;;
53751;SDS011;41095;53.090;6.692;2023-05-16T01:49:35;11.40;;;3.33;;
53751;SDS011;41095;53.090;6.692;2023-05-16T01:52:01;8.52;;;3.08;;
53751;SDS011;41095;53.090;6.692;2023-05-16T01:54:32;8.45;;;3.33;;
53751;SDS011;41095;53.090;6.692;2023-05-16T01:57:01;9.50;;;3.60;;
53751;SDS011;41095;53.090;6.692;2023-05-16T01:59:30;11.95;;;3.45;;
53751;SDS011;41095;53.090;6.692;2023-05-16T02:01:57;11.25;;;3.03;;
53751;SDS011;41095;53.090;6.692;2023-05-16T02:04:23;7.30;;;3.10;;
53751;SDS011;41095;53.090;6.692;2023-05-16T02:06:49;8.07;;;3.22;;
53751;SDS011;41095;53.090;6.692;2023-05-16T02:09:16;9.73;;;3.55;;
53751;SDS011;41095;53.090;6.692;2023-05-16T02:11:41;11.70;;;3.10;;
53751;SDS011;41095;53.090;6.692;2023-05-16T02:14:07;7.60;;;3.05;;
53751;SDS011;41095;53.090;6.692;2023-05-16T02:16:33;12.68;;;4.90;;
53751;SDS011;41095;53.090;6.692;2023-05-16T02:19:00;9.10;;;3.28;;
53751;SDS011;41095;53.090;6.692;2023-05-16T02:21:26;10.18;;;3.63;;
53751;SDS011;41095;53.090;6.692;2023-05-16T02:23:52;6.60;;;3.38;;
53751;SDS011;41095;53.090;6.692;2023-05-16T02:26:17;11.43;;;3.83;;
53751;SDS011;41095;53.090;6.692;2023-05-16T02:28:43;11.52;;;3.28;;
53751;SDS011;41095;53.090;6.692;2023-05-16T02:31:09;11.07;;;3.17;;
53751;SDS011;41095;53.090;6.692;2023-05-16T02:33:35;9.70;;;3.58;;
53751;SDS011;41095;53.090;6.692;2023-05-16T02:36:01;6.43;;;3.00;;
53751;SDS011;41095;53.090;6.692;2023-05-16T02:38:27;8.85;;;2.90;;
53751;SDS011;41095;53.090;6.692;2023-05-16T02:40:53;7.43;;;2.83;;
53751;SDS011;41095;53.090;6.692;2023-05-16T02:43:18;8.32;;;3.30;;
53751;SDS011;41095;53.090;6.692;2023-05-16T02:45:44;6.20;;;3.40;;
53751;SDS011;41095;53.090;6.692;2023-05-16T02:48:10;9.10;;;3.42;;
53751;SDS011;41095;53.090;6.692;2023-05-16T02:50:36;11.90;;;3.78;;
53751;SDS011;41095;53.090;6.692;2023-05-16T02:53:04;11.32;;;3.95;;
53751;SDS011;41095;53.090;6.692;2023-05-16T02:55:30;6.88;;;3.63;;
53751;SDS011;41095;53.090;6.692;2023-05-16T02:57:56;6.65;;;3.67;;
53751;SDS011;41095;53.090;6.692;2023-05-16T03:00:22;12.73;;;3.20;;
53751;SDS011;41095;53.090;6.692;2023-05-16T03:02:48;9.75;;;3.60;;
53751;SDS011;41095;53.090;6.692;2023-05-16T03:05:13;7.32;;;3.05;;
53751;SDS011;41095;53.090;6.692;2023-05-16T03:07:39;9.13;;;3.70;;
53751;SDS011;41095;53.090;6.692;2023-05-16T03:10:05;8.20;;;3.30;;
53751;SDS011;41095;53.090;6.692;2023-05-16T03:12:32;5.55;;;3.17;;
53751;SDS011;41095;53.090;6.692;2023-05-16T03:14:58;7.15;;;3.05;;
53751;SDS011;41095;53.090;6.692;2023-05-16T03:17:24;9.02;;;3.35;;
53751;SDS011;41095;53.090;6.692;2023-05-16T03:19:50;7.93;;;3.13;;
53751;SDS011;41095;53.090;6.692;2023-05-16T03:22:16;7.85;;;2.85;;
53751;SDS011;41095;53.090;6.692;2023-05-16T03:24:42;6.72;;;3.67;;
53751;SDS011;41095;53.090;6.692;2023-05-16T03:27:09;9.15;;;3.33;;
53751;SDS011;41095;53.090;6.692;2023-05-16T03:29:35;12.25;;;3.20;;
53751;SDS011;41095;53.090;6.692;2023-05-16T03:32:01;8.13;;;2.55;;
53751;SDS011;41095;53.090;6.692;2023-05-16T03:34:27;6.65;;;3.30;;
53751;SDS011;41095;53.090;6.692;2023-05-16T03:36:53;6.20;;;3.58;;
53751;SDS011;41095;53.090;6.692;2023-05-16T03:39:19;9.00;;;3.47;;
53751;SDS011;41095;53.090;6.692;2023-05-16T03:41:45;7.53;;;2.90;;
53751;SDS011;41095;53.090;6.692;2023-05-16T03:44:11;6.75;;;3.42;;
53751;SDS011;41095;53.090;6.692;2023-05-16T03:46:37;11.15;;;3.65;;
53751;SDS011;41095;53.090;6.692;2023-05-16T03:49:02;9.00;;;3.80;;
53751;SDS011;41095;53.090;6.692;2023-05-16T03:51:28;7.65;;;3.42;;
53751;SDS011;41095;53.090;6.692;2023-05-16T03:53:54;6.50;;;2.65;;
53751;SDS011;41095;53.090;6.692;2023-05-16T03:56:20;8.25;;;3.40;;
53751;SDS011;41095;53.090;6.692;2023-05-16T03:58:46;8.68;;;3.10;;
53751;SDS011;41095;53.090;6.692;2023-05-16T04:01:12;10.38;;;3.67;;
53751;SDS011;41095;53.090;6.692;2023-05-16T04:03:38;6.75;;;3.30;;
53751;SDS011;41095;53.090;6.692;2023-05-16T04:06:04;7.13;;;3.22;;
53751;SDS011;41095;53.090;6.692;2023-05-16T04:08:31;14.48;;;3.95;;
53751;SDS011;41095;53.090;6.692;2023-05-16T04:10:56;8.63;;;4.05;;
53751;SDS011;41095;53.090;6.692;2023-05-16T04:13:22;8.18;;;3.13;;
53751;SDS011;41095;53.090;6.692;2023-05-16T04:15:48;6.88;;;3.85;;
53751;SDS011;41095;53.090;6.692;2023-05-16T04:18:13;8.95;;;3.90;;
53751;SDS011;41095;53.090;6.692;2023-05-16T04:20:41;11.35;;;3.35;;
53751;SDS011;41095;53.090;6.692;2023-05-16T04:23:07;7.50;;;3.28;;
53751;SDS011;41095;53.090;6.692;2023-05-16T04:25:35;9.38;;;3.65;;
53751;SDS011;41095;53.090;6.692;2023-05-16T04:28:01;12.70;;;3.55;;
53751;SDS011;41095;53.090;6.692;2023-05-16T04:30:27;8.05;;;3.70;;
53751;SDS011;41095;53.090;6.692;2023-05-16T04:32:53;6.30;;;3.28;;
53751;SDS011;41095;53.090;6.692;2023-05-16T04:35:19;8.25;;;3.20;;
53751;SDS011;41095;53.090;6.692;2023-05-16T04:37:46;8.85;;;3.53;;
53751;SDS011;41095;53.090;6.692;2023-05-16T04:40:11;7.90;;;3.13;;
53751;SDS011;41095;53.090;6.692;2023-05-16T04:42:38;6.25;;;2.83;;
53751;SDS011;41095;53.090;6.692;2023-05-16T04:45:04;7.20;;;3.05;;
53751;SDS011;41095;53.090;6.692;2023-05-16T04:47:31;10.48;;;3.28;;
53751;SDS011;41095;53.090;6.692;2023-05-16T04:49:56;7.97;;;3.55;;
53751;SDS011;41095;53.090;6.692;2023-05-16T04:52:22;10.32;;;3.55;;
53751;SDS011;41095;53.090;6.692;2023-05-16T04:54:51;9.10;;;3.70;;
53751;SDS011;41095;53.090;6.692;2023-05-16T04:57:17;8.13;;;3.75;;
53751;SDS011;41095;53.090;6.692;2023-05-16T04:59:43;7.40;;;3.45;;
53751;SDS011;41095;53.090;6.692;2023-05-16T05:02:08;9.55;;;3.35;;
53751;SDS011;41095;53.090;6.692;2023-05-16T05:04:34;9.02;;;3.60;;
53751;SDS011;41095;53.090;6.692;2023-05-16T05:07:00;7.63;;;3.25;;
53751;SDS011;41095;53.090;6.692;2023-05-16T05:09:25;5.97;;;3.05;;
53751;SDS011;41095;53.090;6.692;2023-05-16T05:11:51;6.47;;;3.10;;
53751;SDS011;41095;53.090;6.692;2023-05-16T05:14:17;9.70;;;3.60;;
53751;SDS011;41095;53.090;6.692;2023-05-16T05:16:42;6.32;;;3.42;;
53751;SDS011;41095;53.090;6.692;2023-05-16T05:19:08;8.90;;;2.92;;
53751;SDS011;41095;53.090;6.692;2023-05-16T05:21:34;10.20;;;3.33;;
53751;SDS011;41095;53.090;6.692;2023-05-16T05:24:00;9.45;;;4.10;;
53751;SDS011;41095;53.090;6.692;2023-05-16T05:26:25;7.53;;;2.90;;
53751;SDS011;41095;53.090;6.692;2023-05-16T05:28:53;5.50;;;2.63;;
53751;SDS011;41095;53.090;6.692;2023-05-16T05:31:18;7.95;;;3.28;;
53751;SDS011;41095;53.090;6.692;2023-05-16T05:33:44;8.15;;;3.35;;
53751;SDS011;41095;53.090;6.692;2023-05-16T05:36:10;6.82;;;2.92;;
53751;SDS011;41095;53.090;6.692;2023-05-16T05:38:36;8.43;;;2.90;;
53751;SDS011;41095;53.090;6.692;2023-05-16T05:41:03;12.52;;;4.28;;
53751;SDS011;41095;53.090;6.692;2023-05-16T05:43:29;6.47;;;2.83;;
53751;SDS011;41095;53.090;6.692;2023-05-16T05:45:55;5.70;;;2.90;;
53751;SDS011;41095;53.090;6.692;2023-05-16T05:48:20;8.85;;;3.83;;
53751;SDS011;41095;53.090;6.692;2023-05-16T05:50:46;10.45;;;3.20;;
53751;SDS011;41095;53.090;6.692;2023-05-16T05:53:12;8.15;;;3.22;;
53751;SDS011;41095;53.090;6.692;2023-05-16T05:55:38;6.43;;;2.83;;
53751;SDS011;41095;53.090;6.692;2023-05-16T05:58:09;11.82;;;3.40;;
53751;SDS011;41095;53.090;6.692;2023-05-16T06:00:34;9.75;;;3.00;;
53751;SDS011;41095;53.090;6.692;2023-05-16T06:03:00;6.20;;;2.80;;
53751;SDS011;41095;53.090;6.692;2023-05-16T06:05:26;6.15;;;2.75;;
53751;SDS011;41095;53.090;6.692;2023-05-16T06:07:51;8.63;;;2.80;;
53751;SDS011;41095;53.090;6.692;2023-05-16T06:10:17;14.38;;;3.28;;
53751;SDS011;41095;53.090;6.692;2023-05-16T06:12:43;7.55;;;3.10;;
53751;SDS011;41095;53.090;6.692;2023-05-16T06:15:08;7.93;;;2.90;;
53751;SDS011;41095;53.090;6.692;2023-05-16T06:17:34;7.05;;;2.45;;
53751;SDS011;41095;53.090;6.692;2023-05-16T06:20:00;10.52;;;3.22;;
53751;SDS011;41095;53.090;6.692;2023-05-16T06:22:26;6.72;;;3.05;;
53751;SDS011;41095;53.090;6.692;2023-05-16T06:24:52;10.40;;;3.63;;
53751;SDS011;41095;53.090;6.692;2023-05-16T06:27:17;6.10;;;3.30;;
53751;SDS011;41095;53.090;6.692;2023-05-16T06:29:43;6.15;;;2.85;;
53751;SDS011;41095;53.090;6.692;2023-05-16T06:32:09;5.28;;;2.58;;
53751;SDS011;41095;53.090;6.692;2023-05-16T06:34:34;6.28;;;2.60;;
53751;SDS011;41095;53.090;6.692;2023-05-16T06:37:00;9.00;;;1.83;;
53751;SDS011;41095;53.090;6.692;2023-05-16T06:39:29;5.72;;;2.47;;
53751;SDS011;41095;53.090;6.692;2023-05-16T06:41:54;7.18;;;2.28;;
53751;SDS011;41095;53.090;6.692;2023-05-16T06:44:21;5.88;;;1.92;;
53751;SDS011;41095;53.090;6.692;2023-05-16T06:46:47;6.10;;;1.67;;
53751;SDS011;41095;53.090;6.692;2023-05-16T06:49:13;8.25;;;2.10;;
53751;SDS011;41095;53.090;6.692;2023-05-16T06:51:39;5.82;;;1.98;;
53751;SDS011;41095;53.090;6.692;2023-05-16T06:54:05;4.30;;;1.90;;
53751;SDS011;41095;53.090;6.692;2023-05-16T06:56:31;4.70;;;1.80;;
53751;SDS011;41095;53.090;6.692;2023-05-16T06:58:57;6.00;;;2.08;;
53751;SDS011;41095;53.090;6.692;2023-05-16T07:01:22;1.90;;;1.45;;
53751;SDS011;41095;53.090;6.692;2023-05-16T07:03:48;4.63;;;1.70;;
53751;SDS011;41095;53.090;6.692;2023-05-16T07:06:14;4.85;;;2.22;;
53751;SDS011;41095;53.090;6.692;2023-05-16T07:08:40;4.78;;;1.65;;
53751;SDS011;41095;53.090;6.692;2023-05-16T07:11:05;3.17;;;1.67;;
53751;SDS011;41095;53.090;6.692;2023-05-16T07:13:31;3.05;;;1.50;;
53751;SDS011;41095;53.090;6.692;2023-05-16T07:15:57;5.50;;;1.58;;
53751;SDS011;41095;53.090;6.692;2023-05-16T07:18:22;5.93;;;1.35;;
53751;SDS011;41095;53.090;6.692;2023-05-16T07:20:53;3.83;;;1.70;;
53751;SDS011;41095;53.090;6.692;2023-05-16T07:23:19;4.70;;;1.58;;
53751;SDS011;41095;53.090;6.692;2023-05-16T07:25:45;3.35;;;1.67;;
53751;SDS011;41095;53.090;6.692;2023-05-16T07:28:10;2.40;;;1.35;;
53751;SDS011;41095;53.090;6.692;2023-05-16T07:30:36;3.50;;;1.35;;
53751;SDS011;41095;53.090;6.692;2023-05-16T07:33:02;4.53;;;2.08;;
53751;SDS011;41095;53.090;6.692;2023-05-16T07:35:27;8.05;;;1.90;;
53751;SDS011;41095;53.090;6.692;2023-05-16T07:37:53;3.40;;;1.27;;
53751;SDS011;41095;53.090;6.692;2023-05-16T07:40:19;5.38;;;2.00;;
53751;SDS011;41095;53.090;6.692;2023-05-16T07:42:49;3.97;;;1.90;;
53751;SDS011;41095;53.090;6.692;2023-05-16T07:45:15;2.88;;;1.50;;
53751;SDS011;41095;53.090;6.692;2023-05-16T07:47:41;3.15;;;1.90;;
53751;SDS011;41095;53.090;6.692;2023-05-16T07:50:07;4.72;;;2.05;;
53751;SDS011;41095;53.090;6.692;2023-05-16T07:52:33;5.78;;;1.92;;
53751;SDS011;41095;53.090;6.692;2023-05-16T07:54:59;5.78;;;2.20;;
53751;SDS011;41095;53.090;6.692;2023-05-16T07:57:24;5.38;;;1.92;;
53751;SDS011;41095;53.090;6.692;2023-05-16T07:59:51;5.90;;;2.10;;
53751;SDS011;41095;53.090;6.692;2023-05-16T08:02:17;4.03;;;1.65;;
53751;SDS011;41095;53.090;6.692;2023-05-16T08:04:43;7.78;;;2.30;;
53751;SDS011;41095;53.090;6.692;2023-05-16T08:07:08;8.23;;;2.20;;
53751;SDS011;41095;53.090;6.692;2023-05-16T08:09:34;6.93;;;1.98;;
53751;SDS011;41095;53.090;6.692;2023-05-16T08:12:00;6.85;;;2.58;;
53751;SDS011;41095;53.090;6.692;2023-05-16T08:14:29;2.17;;;1.55;;
53751;SDS011;41095;53.090;6.692;2023-05-16T08:16:56;6.30;;;1.92;;
53751;SDS011;41095;53.090;6.692;2023-05-16T08:19:23;5.32;;;1.98;;
53751;SDS011;41095;53.090;6.692;2023-05-16T08:21:48;5.90;;;2.83;;
53751;SDS011;41095;53.090;6.692;2023-05-16T08:24:14;5.20;;;1.95;;
53751;SDS011;41095;53.090;6.692;2023-05-16T08:26:40;5.70;;;1.77;;
53751;SDS011;41095;53.090;6.692;2023-05-16T08:29:06;5.68;;;1.98;;
53751;SDS011;41095;53.090;6.692;2023-05-16T08:31:31;4.53;;;1.42;;
53751;SDS011;41095;53.090;6.692;2023-05-16T08:33:57;3.15;;;1.70;;
53751;SDS011;41095;53.090;6.692;2023-05-16T08:36:22;4.10;;;1.73;;
53751;SDS011;41095;53.090;6.692;2023-05-16T08:38:48;5.88;;;1.75;;
53751;SDS011;41095;53.090;6.692;2023-05-16T08:41:14;4.55;;;1.33;;
53751;SDS011;41095;53.090;6.692;2023-05-16T08:43:40;4.63;;;1.30;;
53751;SDS011;41095;53.090;6.692;2023-05-16T08:46:06;2.63;;;1.25;;
53751;SDS011;41095;53.090;6.692;2023-05-16T08:48:32;6.22;;;1.70;;
53751;SDS011;41095;53.090;6.692;2023-05-16T08:51:01;1.40;;;1.13;;
53751;SDS011;41095;53.090;6.692;2023-05-16T08:53:30;3.78;;;1.42;;
53751;SDS011;41095;53.090;6.692;2023-05-16T08:56:02;5.57;;;1.67;;
53751;SDS011;41095;53.090;6.692;2023-05-16T08:58:29;2.88;;;1.45;;
53751;SDS011;41095;53.090;6.692;2023-05-16T09:00:55;3.45;;;1.65;;
53751;SDS011;41095;53.090;6.692;2023-05-16T09:03:21;5.40;;;1.38;;
53751;SDS011;41095;53.090;6.692;2023-05-16T09:05:49;5.28;;;2.00;;
53751;SDS011;41095;53.090;6.692;2023-05-16T09:08:14;6.15;;;1.95;;
53751;SDS011;41095;53.090;6.692;2023-05-16T09:10:40;3.58;;;1.70;;
53751;SDS011;41095;53.090;6.692;2023-05-16T09:13:06;6.63;;;1.63;;
53751;SDS011;41095;53.090;6.692;2023-05-16T09:15:32;5.68;;;1.85;;
53751;SDS011;41095;53.090;6.692;2023-05-16T09:18:01;3.92;;;1.73;;
53751;SDS011;41095;53.090;6.692;2023-05-16T09:20:28;6.03;;;2.33;;
53751;SDS011;41095;53.090;6.692;2023-05-16T09:22:58;4.63;;;1.92;;
53751;SDS011;41095;53.090;6.692;2023-05-16T09:25:25;7.10;;;1.90;;
53751;SDS011;41095;53.090;6.692;2023-05-16T09:27:52;3.25;;;1.83;;
53751;SDS011;41095;53.090;6.692;2023-05-16T09:30:22;8.98;;;2.22;;
53751;SDS011;41095;53.090;6.692;2023-05-16T09:32:52;5.68;;;1.50;;
53751;SDS011;41095;53.090;6.692;2023-05-16T09:35:19;9.02;;;1.90;;
53751;SDS011;41095;53.090;6.692;2023-05-16T09:37:46;2.90;;;1.45;;
53751;SDS011;41095;53.090;6.692;2023-05-16T09:40:13;3.47;;;1.70;;
53751;SDS011;41095;53.090;6.692;2023-05-16T09:42:39;4.95;;;1.67;;
53751;SDS011;41095;53.090;6.692;2023-05-16T09:45:06;2.40;;;1.20;;
53751;SDS011;41095;53.090;6.692;2023-05-16T09:47:35;5.90;;;1.65;;
53751;SDS011;41095;53.090;6.692;2023-05-16T09:50:09;4.95;;;1.95;;
53751;SDS011;41095;53.090;6.692;2023-05-16T09:52:36;3.53;;;1.75;;
53751;SDS011;41095;53.090;6.692;2023-05-16T09:55:02;5.20;;;1.90;;
53751;SDS011;41095;53.090;6.692;2023-05-16T09:57:31;3.85;;;2.17;;
53751;SDS011;41095;53.090;6.692;2023-05-16T09:59:58;3.08;;;1.40;;
53751;SDS011;41095;53.090;6.692;2023-05-16T10:02:25;6.68;;;2.53;;
53751;SDS011;41095;53.090;6.692;2023-05-16T10:04:52;4.20;;;1.85;;
53751;SDS011;41095;53.090;6.692;2023-05-16T10:07:17;4.18;;;1.65;;
53751;SDS011;41095;53.090;6.692;2023-05-16T10:09:45;5.40;;;2.20;;
53751;SDS011;41095;53.090;6.692;2023-05-16T10:12:12;4.10;;;1.75;;
53751;SDS011;41095;53.090;6.692;2023-05-16T10:14:39;9.52;;;2.03;;
53751;SDS011;41095;53.090;6.692;2023-05-16T10:17:06;6.32;;;1.70;;
53751;SDS011;41095;53.090;6.692;2023-05-16T10:19:36;8.20;;;2.38;;
53751;SDS011;41095;53.090;6.692;2023-05-16T10:22:04;3.88;;;1.60;;
53751;SDS011;41095;53.090;6.692;2023-05-16T10:24:41;7.07;;;1.83;;
53751;SDS011;41095;53.090;6.692;2023-05-16T10:27:09;4.57;;;1.85;;
53751;SDS011;41095;53.090;6.692;2023-05-16T10:29:36;3.33;;;1.30;;
53751;SDS011;41095;53.090;6.692;2023-05-16T10:32:03;2.03;;;1.40;;
53751;SDS011;41095;53.090;6.692;2023-05-16T10:34:30;3.65;;;1.95;;
53751;SDS011;41095;53.090;6.692;2023-05-16T10:36:57;3.20;;;1.70;;
53751;SDS011;41095;53.090;6.692;2023-05-16T10:39:23;4.47;;;1.70;;
53751;SDS011;41095;53.090;6.692;2023-05-16T10:41:50;10.77;;;2.35;;
53751;SDS011;41095;53.090;6.692;2023-05-16T10:44:16;7.15;;;1.90;;
53751;SDS011;41095;53.090;6.692;2023-05-16T10:46:42;3.08;;;1.30;;
53751;SDS011;41095;53.090;6.692;2023-05-16T10:49:24;4.50;;;1.65;;
53751;SDS011;41095;53.090;6.692;2023-05-16T10:52:10;8.38;;;1.92;;
53751;SDS011;41095;53.090;6.692;2023-05-16T10:54:40;5.60;;;2.05;;
53751;SDS011;41095;53.090;6.692;2023-05-16T10:57:08;5.55;;;2.38;;
53751;SDS011;41095;53.090;6.692;2023-05-16T10:59:39;4.22;;;1.65;;
53751;SDS011;41095;53.090;6.692;2023-05-16T11:05:03;6.05;;;2.00;;
53751;SDS011;41095;53.090;6.692;2023-05-16T11:07:34;7.68;;;1.77;;
53751;SDS011;41095;53.090;6.692;2023-05-16T11:10:09;4.25;;;1.95;;
53751;SDS011;41095;53.090;6.692;2023-05-16T11:18:05;4.30;;;2.10;;
53751;SDS011;41095;53.090;6.692;2023-05-16T11:20:32;3.80;;;1.70;;
53751;SDS011;41095;53.090;6.692;2023-05-16T11:25:41;5.07;;;1.60;;
53751;SDS011;41095;53.090;6.692;2023-05-16T11:28:09;4.43;;;2.45;;
53751;SDS011;41095;53.090;6.692;2023-05-16T11:30:41;4.10;;;1.70;;
53751;SDS011;41095;53.090;6.692;2023-05-16T11:33:08;7.25;;;2.08;;
53751;SDS011;41095;53.090;6.692;2023-05-16T11:35:34;4.97;;;2.15;;
53751;SDS011;41095;53.090;6.692;2023-05-16T11:38:01;5.63;;;1.92;;
53751;SDS011;41095;53.090;6.692;2023-05-16T11:40:26;5.03;;;2.15;;
53751;SDS011;41095;53.090;6.692;2023-05-16T11:42:52;3.75;;;2.17;;
53751;SDS011;41095;53.090;6.692;2023-05-16T11:45:18;2.80;;;1.88;;
53751;SDS011;41095;53.090;6.692;2023-05-16T11:47:47;6.85;;;2.08;;
53751;SDS011;41095;53.090;6.692;2023-05-16T11:50:15;3.85;;;2.22;;
53751;SDS011;41095;53.090;6.692;2023-05-16T11:52:43;6.47;;;2.17;;
53751;SDS011;41095;53.090;6.692;2023-05-16T11:55:10;7.82;;;2.63;;
53751;SDS011;41095;53.090;6.692;2023-05-16T11:57:40;6.15;;;2.70;;
53751;SDS011;41095;53.090;6.692;2023-05-16T12:02:47;5.70;;;2.80;;
53751;SDS011;41095;53.090;6.692;2023-05-16T12:05:14;6.43;;;2.88;;
53751;SDS011;41095;53.090;6.692;2023-05-16T12:07:44;4.95;;;2.60;;
53751;SDS011;41095;53.090;6.692;2023-05-16T12:10:11;6.97;;;3.33;;
53751;SDS011;41095;53.090;6.692;2023-05-16T12:12:39;8.93;;;3.53;;
53751;SDS011;41095;53.090;6.692;2023-05-16T12:15:06;5.32;;;2.53;;
53751;SDS011;41095;53.090;6.692;2023-05-16T12:17:37;6.55;;;3.00;;
53751;SDS011;41095;53.090;6.692;2023-05-16T12:20:04;5.20;;;3.03;;
53751;SDS011;41095;53.090;6.692;2023-05-16T12:22:37;5.45;;;3.13;;
53751;SDS011;41095;53.090;6.692;2023-05-16T12:25:43;7.05;;;3.33;;
53751;SDS011;41095;53.090;6.692;2023-05-16T12:28:07;10.35;;;2.92;;
53751;SDS011;41095;53.090;6.692;2023-05-16T12:30:34;6.60;;;2.90;;
53751;SDS011;41095;53.090;6.692;2023-05-16T12:33:01;3.40;;;2.55;;
53751;SDS011;41095;53.090;6.692;2023-05-16T12:35:28;7.68;;;3.10;;
53751;SDS011;41095;53.090;6.692;2023-05-16T12:37:56;9.30;;;2.90;;
53751;SDS011;41095;53.090;6.692;2023-05-16T12:40:22;4.82;;;2.75;;
53751;SDS011;41095;53.090;6.692;2023-05-16T12:42:48;6.72;;;3.38;;
53751;SDS011;41095;53.090;6.692;2023-05-16T12:45:17;7.10;;;2.70;;
53751;SDS011;41095;53.090;6.692;2023-05-16T12:47:43;6.68;;;2.85;;
53751;SDS011;41095;53.090;6.692;2023-05-16T12:50:13;6.18;;;2.53;;
53751;SDS011;41095;53.090;6.692;2023-05-16T12:52:49;6.72;;;2.75;;
53751;SDS011;41095;53.090;6.692;2023-05-16T12:55:17;5.60;;;2.75;;
53751;SDS011;41095;53.090;6.692;2023-05-16T12:57:44;6.93;;;2.80;;
53751;SDS011;41095;53.090;6.692;2023-05-16T13:00:14;3.58;;;2.40;;
53751;SDS011;41095;53.090;6.692;2023-05-16T13:02:45;6.53;;;2.65;;
53751;SDS011;41095;53.090;6.692;2023-05-16T13:05:11;8.75;;;3.60;;
53751;SDS011;41095;53.090;6.692;2023-05-16T13:07:37;3.42;;;2.85;;
53751;SDS011;41095;53.090;6.692;2023-05-16T13:10:07;4.85;;;3.05;;
53751;SDS011;41095;53.090;6.692;2023-05-16T13:12:38;9.80;;;3.33;;
53751;SDS011;41095;53.090;6.692;2023-05-16T13:15:08;4.43;;;2.88;;
53751;SDS011;41095;53.090;6.692;2023-05-16T13:17:36;4.20;;;3.50;;
53751;SDS011;41095;53.090;6.692;2023-05-16T13:20:03;7.18;;;3.70;;
53751;SDS011;41095;53.090;6.692;2023-05-16T13:22:33;7.00;;;3.22;;
53751;SDS011;41095;53.090;6.692;2023-05-16T13:25:00;4.55;;;2.97;;
53751;SDS011;41095;53.090;6.692;2023-05-16T13:27:26;7.32;;;3.22;;
53751;SDS011;41095;53.090;6.692;2023-05-16T13:29:51;4.75;;;3.00;;
53751;SDS011;41095;53.090;6.692;2023-05-16T13:32:17;6.72;;;3.83;;
53751;SDS011;41095;53.090;6.692;2023-05-16T13:34:43;5.88;;;2.95;;
53751;SDS011;41095;53.090;6.692;2023-05-16T13:37:08;5.78;;;3.78;;
53751;SDS011;41095;53.090;6.692;2023-05-16T13:39:34;5.90;;;3.10;;
53751;SDS011;41095;53.090;6.692;2023-05-16T13:42:00;7.38;;;2.97;;
53751;SDS011;41095;53.090;6.692;2023-05-16T13:44:27;7.13;;;4.03;;
53751;SDS011;41095;53.090;6.692;2023-05-16T13:46:53;6.60;;;3.03;;
53751;SDS011;41095;53.090;6.692;2023-05-16T13:49:19;5.35;;;3.17;;
53751;SDS011;41095;53.090;6.692;2023-05-16T13:51:44;6.18;;;3.10;;
53751;SDS011;41095;53.090;6.692;2023-05-16T13:54:11;5.28;;;2.70;;
53751;SDS011;41095;53.090;6.692;2023-05-16T13:56:37;7.47;;;3.40;;
53751;SDS011;41095;53.090;6.692;2023-05-16T13:59:02;5.88;;;3.15;;
53751;SDS011;41095;53.090;6.692;2023-05-16T14:01:28;4.45;;;2.63;;
53751;SDS011;41095;53.090;6.692;2023-05-16T14:03:54;3.25;;;2.83;;
53751;SDS011;41095;53.090;6.692;2023-05-16T14:06:20;4.85;;;2.50;;
53751;SDS011;41095;53.090;6.692;2023-05-16T14:08:46;6.78;;;3.15;;
53751;SDS011;41095;53.090;6.692;2023-05-16T14:11:11;5.30;;;3.38;;
53751;SDS011;41095;53.090;6.692;2023-05-16T14:13:37;5.35;;;3.30;;
53751;SDS011;41095;53.090;6.692;2023-05-16T14:16:04;6.28;;;3.28;;
53751;SDS011;41095;53.090;6.692;2023-05-16T14:18:31;7.65;;;3.95;;
53751;SDS011;41095;53.090;6.692;2023-05-16T14:20:57;4.10;;;3.05;;
53751;SDS011;41095;53.090;6.692;2023-05-16T14:23:23;4.80;;;3.22;;
53751;SDS011;41095;53.090;6.692;2023-05-16T14:25:48;5.32;;;2.83;;
53751;SDS011;41095;53.090;6.692;2023-05-16T14:28:14;4.90;;;2.85;;
53751;SDS011;41095;53.090;6.692;2023-05-16T14:30:40;5.30;;;3.17;;
53751;SDS011;41095;53.090;6.692;2023-05-16T14:33:06;5.75;;;3.10;;
53751;SDS011;41095;53.090;6.692;2023-05-16T14:35:31;8.30;;;3.25;;
53751;SDS011;41095;53.090;6.692;2023-05-16T14:37:57;7.18;;;3.42;;
53751;SDS011;41095;53.090;6.692;2023-05-16T14:40:23;4.82;;;2.63;;
53751;SDS011;41095;53.090;6.692;2023-05-16T14:42:48;4.95;;;3.13;;
53751;SDS011;41095;53.090;6.692;2023-05-16T14:45:15;4.07;;;2.90;;
53751;SDS011;41095;53.090;6.692;2023-05-16T14:47:41;7.60;;;2.58;;
53751;SDS011;41095;53.090;6.692;2023-05-16T14:50:07;5.35;;;3.05;;
53751;SDS011;41095;53.090;6.692;2023-05-16T14:52:33;5.72;;;3.13;;
53751;SDS011;41095;53.090;6.692;2023-05-16T14:55:01;6.18;;;2.78;;
53751;SDS011;41095;53.090;6.692;2023-05-16T14:57:28;3.70;;;2.38;;
53751;SDS011;41095;53.090;6.692;2023-05-16T14:59:53;5.97;;;3.28;;
53751;SDS011;41095;53.090;6.692;2023-05-16T15:02:21;7.97;;;3.10;;
53751;SDS011;41095;53.090;6.692;2023-05-16T15:04:47;3.97;;;3.08;;